sensor_id;sensor_type;location;lat;lon;timestamp;P1;durP1;ratioP1;P2;durP2;ratioP2
13455;SDS011;6800;50.940;6.940;2023-05-07T00:00:05;4.20;;;3.70;;
13455;SDS011;6800;50.940;6.940;2023-05-07T00:04:09;6.80;;;4.10;;
13455;SDS011;6800;50.940;6.940;2023-05-07T00:08:11;3.83;;;3.33;;
13455;SDS011;6800;50.940;6.940;2023-05-07T00:12:13;3.67;;;3.33;;
13455;SDS011;6800;50.940;6.940;2023-05-07T00:16:14;3.83;;;3.27;;
13455;SDS011;6800;50.940;6.940;2023-05-07T00:20:16;4.33;;;3.47;;
13455;SDS011;6800;50.940;6.940;2023-05-07T00:24:17;5.43;;;4.10;;
13455;SDS011;6800;50.940;6.940;2023-05-07T00:28:18;5.03;;;3.20;;
13455;SDS011;6800;50.940;6.940;2023-05-07T00:32:20;7.83;;;5.40;;
13455;SDS011;6800;50.940;6.940;2023-05-07T00:36:21;5.83;;;5.13;;
13455;SDS011;6800;50.940;6.940;2023-05-07T00:40:22;7.53;;;6.70;;
13455;SDS011;6800;50.940;6.940;2023-05-07T00:44:24;5.47;;;4.97;;
13455;SDS011;6800;50.940;6.940;2023-05-07T00:48:26;5.90;;;4.50;;
13455;SDS011;6800;50.940;6.940;2023-05-07T00:52:27;5.23;;;4.23;;
13455;SDS011;6800;50.940;6.940;2023-05-07T00:56:30;5.03;;;4.23;;
13455;SDS011;6800;50.940;6.940;2023-05-07T01:00:33;9.23;;;7.17;;
13455;SDS011;6800;50.940;6.940;2023-05-07T01:04:35;4.53;;;4.00;;
13455;SDS011;6800;50.940;6.940;2023-05-07T01:08:37;4.83;;;3.60;;
13455;SDS011;6800;50.940;6.940;2023-05-07T01:12:40;4.93;;;4.00;;
13455;SDS011;6800;50.940;6.940;2023-05-07T01:16:43;4.80;;;4.03;;
13455;SDS011;6800;50.940;6.940;2023-05-07T01:20:45;8.97;;;7.37;;
13455;SDS011;6800;50.940;6.940;2023-05-07T01:24:46;11.90;;;8.47;;
13455;SDS011;6800;50.940;6.940;2023-05-07T01:28:48;7.60;;;5.33;;
13455;SDS011;6800;50.940;6.940;2023-05-07T01:33:04;8.20;;;7.20;;
13455;SDS011;6800;50.940;6.940;2023-05-07T01:37:09;18.53;;;11.60;;
13455;SDS011;6800;50.940;6.940;2023-05-07T01:41:11;5.40;;;4.40;;
13455;SDS011;6800;50.940;6.940;2023-05-07T01:45:13;3.63;;;3.33;;
13455;SDS011;6800;50.940;6.940;2023-05-07T01:49:15;3.77;;;3.47;;
13455;SDS011;6800;50.940;6.940;2023-05-07T01:53:17;5.93;;;4.50;;
13455;SDS011;6800;50.940;6.940;2023-05-07T01:57:19;5.40;;;4.30;;
13455;SDS011;6800;50.940;6.940;2023-05-07T02:01:20;5.97;;;3.10;;
13455;SDS011;6800;50.940;6.940;2023-05-07T02:05:22;3.30;;;3.00;;
13455;SDS011;6800;50.940;6.940;2023-05-07T02:09:24;3.57;;;2.97;;
13455;SDS011;6800;50.940;6.940;2023-05-07T02:13:28;3.53;;;3.30;;
13455;SDS011;6800;50.940;6.940;2023-05-07T02:17:32;4.27;;;3.20;;
13455;SDS011;6800;50.940;6.940;2023-05-07T02:21:34;4.47;;;3.47;;
13455;SDS011;6800;50.940;6.940;2023-05-07T02:25:35;2.97;;;2.77;;
13455;SDS011;6800;50.940;6.940;2023-05-07T02:29:37;4.00;;;3.60;;
13455;SDS011;6800;50.940;6.940;2023-05-07T02:33:38;3.70;;;3.30;;
13455;SDS011;6800;50.940;6.940;2023-05-07T02:37:39;4.47;;;3.13;;
13455;SDS011;6800;50.940;6.940;2023-05-07T02:41:41;4.13;;;3.17;;
13455;SDS011;6800;50.940;6.940;2023-05-07T02:45:42;3.70;;;3.40;;
13455;SDS011;6800;50.940;6.940;2023-05-07T02:49:44;3.50;;;3.00;;
13455;SDS011;6800;50.940;6.940;2023-05-07T02:53:45;3.83;;;3.40;;
13455;SDS011;6800;50.940;6.940;2023-05-07T02:57:47;4.13;;;3.17;;
13455;SDS011;6800;50.940;6.940;2023-05-07T03:01:48;4.83;;;4.37;;
13455;SDS011;6800;50.940;6.940;2023-05-07T03:05:50;4.17;;;3.40;;
13455;SDS011;6800;50.940;6.940;2023-05-07T03:09:51;3.73;;;3.43;;
13455;SDS011;6800;50.940;6.940;2023-05-07T03:13:53;3.67;;;3.20;;
13455;SDS011;6800;50.940;6.940;2023-05-07T03:17:54;3.40;;;3.03;;
13455;SDS011;6800;50.940;6.940;2023-05-07T03:21:55;4.43;;;3.30;;
13455;SDS011;6800;50.940;6.940;2023-05-07T03:25:57;3.13;;;2.93;;
13455;SDS011;6800;50.940;6.940;2023-05-07T03:29:58;4.20;;;3.20;;
13455;SDS011;6800;50.940;6.940;2023-05-07T03:34:00;3.37;;;3.07;;
13455;SDS011;6800;50.940;6.940;2023-05-07T03:38:01;3.33;;;2.90;;
13455;SDS011;6800;50.940;6.940;2023-05-07T03:42:03;3.37;;;3.03;;
13455;SDS011;6800;50.940;6.940;2023-05-07T03:46:04;3.67;;;3.37;;
13455;SDS011;6800;50.940;6.940;2023-05-07T03:50:06;3.13;;;2.70;;
13455;SDS011;6800;50.940;6.940;2023-05-07T03:54:07;4.17;;;2.77;;
13455;SDS011;6800;50.940;6.940;2023-05-07T03:58:09;4.23;;;2.77;;
13455;SDS011;6800;50.940;6.940;2023-05-07T04:02:10;3.80;;;2.77;;
13455;SDS011;6800;50.940;6.940;2023-05-07T04:06:12;3.13;;;2.53;;
13455;SDS011;6800;50.940;6.940;2023-05-07T04:10:13;3.00;;;2.70;;
13455;SDS011;6800;50.940;6.940;2023-05-07T04:14:14;2.53;;;2.33;;
13455;SDS011;6800;50.940;6.940;2023-05-07T04:18:16;3.53;;;2.23;;
13455;SDS011;6800;50.940;6.940;2023-05-07T04:22:17;3.50;;;2.80;;
13455;SDS011;6800;50.940;6.940;2023-05-07T04:26:18;3.20;;;2.87;;
13455;SDS011;6800;50.940;6.940;2023-05-07T04:30:20;3.33;;;2.50;;
13455;SDS011;6800;50.940;6.940;2023-05-07T04:34:21;2.93;;;2.50;;
13455;SDS011;6800;50.940;6.940;2023-05-07T04:38:23;3.37;;;2.93;;
13455;SDS011;6800;50.940;6.940;2023-05-07T04:42:27;3.33;;;3.03;;
13455;SDS011;6800;50.940;6.940;2023-05-07T04:46:29;4.50;;;2.50;;
13455;SDS011;6800;50.940;6.940;2023-05-07T04:50:31;2.87;;;2.40;;
13455;SDS011;6800;50.940;6.940;2023-05-07T04:54:32;3.03;;;2.13;;
13455;SDS011;6800;50.940;6.940;2023-05-07T04:58:33;3.03;;;2.10;;
13455;SDS011;6800;50.940;6.940;2023-05-07T05:02:35;4.80;;;2.70;;
13455;SDS011;6800;50.940;6.940;2023-05-07T05:06:36;2.90;;;2.00;;
13455;SDS011;6800;50.940;6.940;2023-05-07T05:10:38;3.13;;;2.13;;
13455;SDS011;6800;50.940;6.940;2023-05-07T05:14:40;2.20;;;2.00;;
13455;SDS011;6800;50.940;6.940;2023-05-07T05:18:42;3.10;;;2.10;;
13455;SDS011;6800;50.940;6.940;2023-05-07T05:22:43;2.43;;;2.23;;
13455;SDS011;6800;50.940;6.940;2023-05-07T05:26:44;2.47;;;2.00;;
13455;SDS011;6800;50.940;6.940;2023-05-07T05:30:46;2.97;;;2.20;;
13455;SDS011;6800;50.940;6.940;2023-05-07T05:34:47;1.97;;;1.87;;
13455;SDS011;6800;50.940;6.940;2023-05-07T05:38:49;4.00;;;2.00;;
13455;SDS011;6800;50.940;6.940;2023-05-07T05:42:50;2.60;;;1.87;;
13455;SDS011;6800;50.940;6.940;2023-05-07T05:46:51;2.43;;;2.00;;
13455;SDS011;6800;50.940;6.940;2023-05-07T05:50:55;3.20;;;1.90;;
13455;SDS011;6800;50.940;6.940;2023-05-07T05:54:57;4.03;;;1.93;;
13455;SDS011;6800;50.940;6.940;2023-05-07T05:58:58;1.90;;;1.70;;
13455;SDS011;6800;50.940;6.940;2023-05-07T06:03:00;2.27;;;1.70;;
13455;SDS011;6800;50.940;6.940;2023-05-07T06:07:01;2.17;;;1.97;;
13455;SDS011;6800;50.940;6.940;2023-05-07T06:11:04;2.50;;;1.75;;
13455;SDS011;6800;50.940;6.940;2023-05-07T06:15:05;2.97;;;1.80;;
13455;SDS011;6800;50.940;6.940;2023-05-07T06:19:07;3.67;;;1.85;;
13455;SDS011;6800;50.940;6.940;2023-05-07T06:23:08;2.45;;;1.65;;
13455;SDS011;6800;50.940;6.940;2023-05-07T06:27:10;1.92;;;1.77;;
13455;SDS011;6800;50.940;6.940;2023-05-07T06:31:12;3.22;;;1.80;;
13455;SDS011;6800;50.940;6.940;2023-05-07T06:35:14;2.33;;;1.90;;
13455;SDS011;6800;50.940;6.940;2023-05-07T06:39:15;1.67;;;1.55;;
13455;SDS011;6800;50.940;6.940;2023-05-07T06:43:17;3.08;;;1.80;;
13455;SDS011;6800;50.940;6.940;2023-05-07T06:47:18;2.70;;;1.35;;
13455;SDS011;6800;50.940;6.940;2023-05-07T06:51:19;1.98;;;1.60;;
13455;SDS011;6800;50.940;6.940;2023-05-07T06:55:21;1.83;;;1.38;;
13455;SDS011;6800;50.940;6.940;2023-05-07T06:59:23;1.70;;;1.40;;
13455;SDS011;6800;50.940;6.940;2023-05-07T07:03:24;2.13;;;1.48;;
13455;SDS011;6800;50.940;6.940;2023-05-07T07:07:26;2.88;;;1.60;;
13455;SDS011;6800;50.940;6.940;2023-05-07T07:11:27;1.90;;;1.30;;
13455;SDS011;6800;50.940;6.940;2023-05-07T07:15:29;1.67;;;1.35;;
13455;SDS011;6800;50.940;6.940;2023-05-07T07:19:30;1.88;;;1.50;;
13455;SDS011;6800;50.940;6.940;2023-05-07T07:23:32;2.42;;;1.52;;
13455;SDS011;6800;50.940;6.940;2023-05-07T07:27:33;2.33;;;1.90;;
13455;SDS011;6800;50.940;6.940;2023-05-07T07:31:35;1.60;;;1.30;;
13455;SDS011;6800;50.940;6.940;2023-05-07T07:35:36;3.58;;;1.33;;
13455;SDS011;6800;50.940;6.940;2023-05-07T07:39:37;1.80;;;1.48;;
13455;SDS011;6800;50.940;6.940;2023-05-07T07:43:39;2.08;;;1.60;;
13455;SDS011;6800;50.940;6.940;2023-05-07T07:47:40;3.80;;;1.95;;
13455;SDS011;6800;50.940;6.940;2023-05-07T07:51:42;1.73;;;1.60;;
13455;SDS011;6800;50.940;6.940;2023-05-07T07:55:44;2.67;;;1.67;;
13455;SDS011;6800;50.940;6.940;2023-05-07T07:59:45;2.85;;;1.70;;
13455;SDS011;6800;50.940;6.940;2023-05-07T08:03:47;3.20;;;1.63;;
13455;SDS011;6800;50.940;6.940;2023-05-07T08:07:49;2.00;;;1.80;;
13455;SDS011;6800;50.940;6.940;2023-05-07T08:11:54;1.63;;;1.52;;
13455;SDS011;6800;50.940;6.940;2023-05-07T08:15:55;1.63;;;1.50;;
13455;SDS011;6800;50.940;6.940;2023-05-07T08:19:56;1.48;;;1.30;;
13455;SDS011;6800;50.940;6.940;2023-05-07T08:23:58;2.25;;;1.63;;
13455;SDS011;6800;50.940;6.940;2023-05-07T08:27:59;2.65;;;1.63;;
13455;SDS011;6800;50.940;6.940;2023-05-07T08:32:01;2.88;;;1.67;;
13455;SDS011;6800;50.940;6.940;2023-05-07T08:36:03;3.05;;;1.48;;
13455;SDS011;6800;50.940;6.940;2023-05-07T08:40:05;1.80;;;1.67;;
13455;SDS011;6800;50.940;6.940;2023-05-07T08:44:13;2.92;;;1.75;;
13455;SDS011;6800;50.940;6.940;2023-05-07T08:48:16;1.50;;;1.40;;
13455;SDS011;6800;50.940;6.940;2023-05-07T08:52:17;3.17;;;1.73;;
13455;SDS011;6800;50.940;6.940;2023-05-07T08:56:21;2.33;;;1.80;;
13455;SDS011;6800;50.940;6.940;2023-05-07T09:00:23;2.97;;;1.52;;
13455;SDS011;6800;50.940;6.940;2023-05-07T09:04:24;3.45;;;2.58;;
13455;SDS011;6800;50.940;6.940;2023-05-07T09:08:26;2.75;;;2.13;;
13455;SDS011;6800;50.940;6.940;2023-05-07T09:12:28;3.63;;;2.13;;
13455;SDS011;6800;50.940;6.940;2023-05-07T09:16:30;3.50;;;2.30;;
13455;SDS011;6800;50.940;6.940;2023-05-07T09:20:32;2.55;;;1.73;;
13455;SDS011;6800;50.940;6.940;2023-05-07T09:24:33;1.83;;;1.38;;
13455;SDS011;6800;50.940;6.940;2023-05-07T09:28:37;2.78;;;2.58;;
13455;SDS011;6800;50.940;6.940;2023-05-07T09:32:39;3.22;;;2.92;;
13455;SDS011;6800;50.940;6.940;2023-05-07T09:36:41;3.03;;;2.83;;
13455;SDS011;6800;50.940;6.940;2023-05-07T09:40:42;3.80;;;3.60;;
13455;SDS011;6800;50.940;6.940;2023-05-07T09:44:46;2.50;;;2.30;;
13455;SDS011;6800;50.940;6.940;2023-05-07T09:48:48;2.28;;;2.08;;
13455;SDS011;6800;50.940;6.940;2023-05-07T09:52:54;3.78;;;2.88;;
13455;SDS011;6800;50.940;6.940;2023-05-07T09:56:56;3.95;;;2.05;;
13455;SDS011;6800;50.940;6.940;2023-05-07T10:00:59;4.30;;;3.05;;
13455;SDS011;6800;50.940;6.940;2023-05-07T10:05:02;3.90;;;3.60;;
13455;SDS011;6800;50.940;6.940;2023-05-07T10:09:04;3.50;;;3.30;;
13455;SDS011;6800;50.940;6.940;2023-05-07T10:13:06;3.15;;;2.85;;
13455;SDS011;6800;50.940;6.940;2023-05-07T10:17:12;3.85;;;3.53;;
13455;SDS011;6800;50.940;6.940;2023-05-07T10:21:18;3.45;;;3.17;;
13455;SDS011;6800;50.940;6.940;2023-05-07T10:25:22;3.25;;;2.90;;
13455;SDS011;6800;50.940;6.940;2023-05-07T10:29:29;5.75;;;3.88;;
13455;SDS011;6800;50.940;6.940;2023-05-07T10:33:38;2.47;;;2.33;;
13455;SDS011;6800;50.940;6.940;2023-05-07T10:37:40;3.13;;;2.83;;
13455;SDS011;6800;50.940;6.940;2023-05-07T10:41:42;2.92;;;2.72;;
13455;SDS011;6800;50.940;6.940;2023-05-07T10:45:45;3.03;;;2.75;;
13455;SDS011;6800;50.940;6.940;2023-05-07T10:50:25;3.50;;;3.20;;
13455;SDS011;6800;50.940;6.940;2023-05-07T10:54:27;4.90;;;2.65;;
13455;SDS011;6800;50.940;6.940;2023-05-07T10:58:29;3.40;;;3.10;;
13455;SDS011;6800;50.940;6.940;2023-05-07T11:11:06;3.22;;;3.00;;
13455;SDS011;6800;50.940;6.940;2023-05-07T11:15:08;2.45;;;2.35;;
13455;SDS011;6800;50.940;6.940;2023-05-07T11:19:11;2.67;;;2.47;;
13455;SDS011;6800;50.940;6.940;2023-05-07T11:23:55;2.70;;;2.50;;
13455;SDS011;6800;50.940;6.940;2023-05-07T11:27:38;2.47;;;2.28;;
13455;SDS011;6800;50.940;6.940;2023-05-07T11:31:39;2.83;;;2.63;;
13455;SDS011;6800;50.940;6.940;2023-05-07T11:35:41;2.90;;;2.20;;
13455;SDS011;6800;50.940;6.940;2023-05-07T11:39:43;2.95;;;2.75;;
13455;SDS011;6800;50.940;6.940;2023-05-07T11:43:55;2.75;;;1.90;;
13455;SDS011;6800;50.940;6.940;2023-05-07T11:47:57;3.15;;;1.60;;
13455;SDS011;6800;50.940;6.940;2023-05-07T11:51:59;1.98;;;1.77;;
13455;SDS011;6800;50.940;6.940;2023-05-07T11:56:00;3.35;;;1.60;;
13455;SDS011;6800;50.940;6.940;2023-05-07T12:00:06;2.15;;;1.77;;
13455;SDS011;6800;50.940;6.940;2023-05-07T12:04:08;2.30;;;1.80;;
13455;SDS011;6800;50.940;6.940;2023-05-07T12:08:13;2.17;;;2.00;;
13455;SDS011;6800;50.940;6.940;2023-05-07T12:12:18;3.22;;;1.50;;
13455;SDS011;6800;50.940;6.940;2023-05-07T12:16:20;1.77;;;1.27;;
13455;SDS011;6800;50.940;6.940;2023-05-07T12:20:22;1.75;;;1.40;;
13455;SDS011;6800;50.940;6.940;2023-05-07T12:24:24;2.50;;;1.60;;
13455;SDS011;6800;50.940;6.940;2023-05-07T12:28:26;3.33;;;1.63;;
13455;SDS011;6800;50.940;6.940;2023-05-07T12:32:27;3.70;;;1.75;;
13455;SDS011;6800;50.940;6.940;2023-05-07T12:36:36;1.50;;;1.40;;
13455;SDS011;6800;50.940;6.940;2023-05-07T12:40:43;2.55;;;1.35;;
13455;SDS011;6800;50.940;6.940;2023-05-07T12:44:46;2.75;;;1.60;;
13455;SDS011;6800;50.940;6.940;2023-05-07T12:48:47;3.50;;;1.60;;
13455;SDS011;6800;50.940;6.940;2023-05-07T12:52:49;1.83;;;1.70;;
13455;SDS011;6800;50.940;6.940;2023-05-07T12:56:50;2.97;;;2.05;;
13455;SDS011;6800;50.940;6.940;2023-05-07T13:00:52;1.70;;;1.45;;
13455;SDS011;6800;50.940;6.940;2023-05-07T13:04:53;4.32;;;2.10;;
13455;SDS011;6800;50.940;6.940;2023-05-07T13:08:55;2.83;;;1.80;;
13455;SDS011;6800;50.940;6.940;2023-05-07T13:12:56;3.00;;;1.60;;
13455;SDS011;6800;50.940;6.940;2023-05-07T13:16:57;6.35;;;2.03;;
13455;SDS011;6800;50.940;6.940;2023-05-07T13:20:59;3.13;;;1.80;;
13455;SDS011;6800;50.940;6.940;2023-05-07T13:25:01;3.08;;;1.80;;
13455;SDS011;6800;50.940;6.940;2023-05-07T13:29:03;3.97;;;2.33;;
13455;SDS011;6800;50.940;6.940;2023-05-07T13:33:04;1.92;;;1.60;;
13455;SDS011;6800;50.940;6.940;2023-05-07T13:37:06;6.15;;;2.35;;
13455;SDS011;6800;50.940;6.940;2023-05-07T13:41:11;2.80;;;2.05;;
13455;SDS011;6800;50.940;6.940;2023-05-07T13:45:14;2.03;;;1.83;;
13455;SDS011;6800;50.940;6.940;2023-05-07T13:49:16;2.88;;;1.90;;
13455;SDS011;6800;50.940;6.940;2023-05-07T13:53:17;2.75;;;2.20;;
13455;SDS011;6800;50.940;6.940;2023-05-07T13:57:19;2.42;;;1.70;;
13455;SDS011;6800;50.940;6.940;2023-05-07T14:01:21;4.47;;;2.03;;
13455;SDS011;6800;50.940;6.940;2023-05-07T14:05:22;3.03;;;2.30;;
13455;SDS011;6800;50.940;6.940;2023-05-07T14:09:28;1.70;;;1.60;;
13455;SDS011;6800;50.940;6.940;2023-05-07T14:13:30;1.83;;;1.50;;
13455;SDS011;6800;50.940;6.940;2023-05-07T14:17:32;4.13;;;1.70;;
13455;SDS011;6800;50.940;6.940;2023-05-07T14:21:36;3.60;;;2.08;;
13455;SDS011;6800;50.940;6.940;2023-05-07T14:25:48;2.00;;;1.80;;
13455;SDS011;6800;50.940;6.940;2023-05-07T14:29:49;2.47;;;1.83;;
13455;SDS011;6800;50.940;6.940;2023-05-07T14:33:52;3.22;;;1.92;;
13455;SDS011;6800;50.940;6.940;2023-05-07T14:37:54;2.40;;;2.15;;
13455;SDS011;6800;50.940;6.940;2023-05-07T14:41:55;3.10;;;2.17;;
13455;SDS011;6800;50.940;6.940;2023-05-07T14:45:58;3.42;;;2.00;;
13455;SDS011;6800;50.940;6.940;2023-05-07T14:50:01;3.72;;;2.47;;
13455;SDS011;6800;50.940;6.940;2023-05-07T14:54:02;2.83;;;2.25;;
13455;SDS011;6800;50.940;6.940;2023-05-07T14:58:04;2.92;;;2.13;;
13455;SDS011;6800;50.940;6.940;2023-05-07T15:02:06;2.95;;;2.65;;
13455;SDS011;6800;50.940;6.940;2023-05-07T15:06:09;2.67;;;2.33;;
13455;SDS011;6800;50.940;6.940;2023-05-07T15:10:10;2.58;;;2.38;;
13455;SDS011;6800;50.940;6.940;2023-05-07T15:14:12;2.92;;;2.17;;
13455;SDS011;6800;50.940;6.940;2023-05-07T15:18:14;4.25;;;2.72;;
13455;SDS011;6800;50.940;6.940;2023-05-07T15:22:15;3.75;;;2.35;;
13455;SDS011;6800;50.940;6.940;2023-05-07T15:26:17;2.85;;;1.80;;
13455;SDS011;6800;50.940;6.940;2023-05-07T15:30:18;3.22;;;2.10;;
13455;SDS011;6800;50.940;6.940;2023-05-07T15:34:21;2.72;;;1.83;;
13455;SDS011;6800;50.940;6.940;2023-05-07T15:38:23;2.72;;;2.05;;
13455;SDS011;6800;50.940;6.940;2023-05-07T15:42:25;6.78;;;2.75;;
13455;SDS011;6800;50.940;6.940;2023-05-07T15:46:26;4.47;;;2.80;;
13455;SDS011;6800;50.940;6.940;2023-05-07T15:50:28;2.95;;;2.45;;
13455;SDS011;6800;50.940;6.940;2023-05-07T15:54:29;4.70;;;2.30;;
13455;SDS011;6800;50.940;6.940;2023-05-07T15:58:31;2.42;;;2.22;;
13455;SDS011;6800;50.940;6.940;2023-05-07T16:02:33;3.03;;;2.22;;
13455;SDS011;6800;50.940;6.940;2023-05-07T16:06:35;2.50;;;2.00;;
13455;SDS011;6800;50.940;6.940;2023-05-07T16:10:36;2.58;;;1.90;;
13455;SDS011;6800;50.940;6.940;2023-05-07T16:14:38;2.60;;;2.40;;
13455;SDS011;6800;50.940;6.940;2023-05-07T16:18:40;3.58;;;2.55;;
13455;SDS011;6800;50.940;6.940;2023-05-07T16:22:41;2.40;;;2.00;;
13455;SDS011;6800;50.940;6.940;2023-05-07T16:26:42;2.50;;;2.17;;
13455;SDS011;6800;50.940;6.940;2023-05-07T16:30:44;3.63;;;2.60;;
13455;SDS011;6800;50.940;6.940;2023-05-07T16:34:45;4.60;;;3.00;;
13455;SDS011;6800;50.940;6.940;2023-05-07T16:38:47;4.38;;;2.75;;
13455;SDS011;6800;50.940;6.940;2023-05-07T16:42:48;4.65;;;2.95;;
13455;SDS011;6800;50.940;6.940;2023-05-07T16:46:50;4.68;;;3.38;;
13455;SDS011;6800;50.940;6.940;2023-05-07T16:50:53;3.47;;;3.17;;
13455;SDS011;6800;50.940;6.940;2023-05-07T16:54:54;2.85;;;2.30;;
13455;SDS011;6800;50.940;6.940;2023-05-07T16:58:58;2.60;;;2.40;;
13455;SDS011;6800;50.940;6.940;2023-05-07T17:02:59;2.88;;;2.40;;
13455;SDS011;6800;50.940;6.940;2023-05-07T17:07:03;2.47;;;2.13;;
13455;SDS011;6800;50.940;6.940;2023-05-07T17:11:07;2.58;;;1.90;;
13455;SDS011;6800;50.940;6.940;2023-05-07T17:15:09;2.85;;;1.48;;
13455;SDS011;6800;50.940;6.940;2023-05-07T17:19:11;2.55;;;1.70;;
13455;SDS011;6800;50.940;6.940;2023-05-07T17:23:15;2.42;;;1.95;;
13455;SDS011;6800;50.940;6.940;2023-05-07T17:27:16;3.35;;;2.13;;
13455;SDS011;6800;50.940;6.940;2023-05-07T17:31:18;2.30;;;2.10;;
13455;SDS011;6800;50.940;6.940;2023-05-07T17:35:22;2.08;;;1.75;;
13455;SDS011;6800;50.940;6.940;2023-05-07T17:39:23;2.88;;;1.95;;
13455;SDS011;6800;50.940;6.940;2023-05-07T17:43:25;2.55;;;2.25;;
13455;SDS011;6800;50.940;6.940;2023-05-07T17:47:26;3.78;;;2.45;;
13455;SDS011;6800;50.940;6.940;2023-05-07T17:51:28;3.13;;;2.70;;
13455;SDS011;6800;50.940;6.940;2023-05-07T17:55:42;2.60;;;2.20;;
13455;SDS011;6800;50.940;6.940;2023-05-07T17:59:45;4.63;;;2.58;;
13455;SDS011;6800;50.940;6.940;2023-05-07T18:03:46;2.95;;;2.40;;
13455;SDS011;6800;50.940;6.940;2023-05-07T18:07:48;3.00;;;2.60;;
13455;SDS011;6800;50.940;6.940;2023-05-07T18:11:50;4.53;;;2.60;;
13455;SDS011;6800;50.940;6.940;2023-05-07T18:15:51;3.90;;;2.58;;
13455;SDS011;6800;50.940;6.940;2023-05-07T18:19:53;3.83;;;3.08;;
13455;SDS011;6800;50.940;6.940;2023-05-07T18:23:55;3.83;;;3.42;;
13455;SDS011;6800;50.940;6.940;2023-05-07T18:27:57;3.92;;;3.10;;
13455;SDS011;6800;50.940;6.940;2023-05-07T18:31:58;4.38;;;3.88;;
13455;SDS011;6800;50.940;6.940;2023-05-07T18:36:00;3.92;;;3.50;;
13455;SDS011;6800;50.940;6.940;2023-05-07T18:40:01;4.85;;;3.38;;
13455;SDS011;6800;50.940;6.940;2023-05-07T18:44:04;6.47;;;3.83;;
13455;SDS011;6800;50.940;6.940;2023-05-07T18:48:06;3.55;;;3.03;;
13455;SDS011;6800;50.940;6.940;2023-05-07T18:52:07;6.22;;;4.32;;
13455;SDS011;6800;50.940;6.940;2023-05-07T18:56:09;6.20;;;3.20;;
13455;SDS011;6800;50.940;6.940;2023-05-07T19:00:10;3.47;;;3.15;;
13455;SDS011;6800;50.940;6.940;2023-05-07T19:04:12;3.35;;;3.05;;
13455;SDS011;6800;50.940;6.940;2023-05-07T19:08:14;4.05;;;3.65;;
13455;SDS011;6800;50.940;6.940;2023-05-07T19:12:15;6.72;;;3.80;;
13455;SDS011;6800;50.940;6.940;2023-05-07T19:16:17;6.82;;;4.47;;
13455;SDS011;6800;50.940;6.940;2023-05-07T19:20:19;5.85;;;4.60;;
13455;SDS011;6800;50.940;6.940;2023-05-07T19:24:20;6.50;;;4.30;;
13455;SDS011;6800;50.940;6.940;2023-05-07T19:28:22;6.47;;;4.00;;
13455;SDS011;6800;50.940;6.940;2023-05-07T19:32:24;4.88;;;4.47;;
13455;SDS011;6800;50.940;6.940;2023-05-07T19:36:26;5.57;;;4.55;;
13455;SDS011;6800;50.940;6.940;2023-05-07T19:40:27;6.70;;;5.28;;
13455;SDS011;6800;50.940;6.940;2023-05-07T19:44:29;6.05;;;4.70;;
13455;SDS011;6800;50.940;6.940;2023-05-07T19:48:30;5.95;;;5.28;;
13455;SDS011;6800;50.940;6.940;2023-05-07T19:52:32;6.47;;;5.78;;
13455;SDS011;6800;50.940;6.940;2023-05-07T19:56:34;6.30;;;5.53;;
13455;SDS011;6800;50.940;6.940;2023-05-07T20:00:36;6.18;;;5.57;;
13455;SDS011;6800;50.940;6.940;2023-05-07T20:04:38;7.57;;;6.07;;
13455;SDS011;6800;50.940;6.940;2023-05-07T20:08:39;7.97;;;6.60;;
13455;SDS011;6800;50.940;6.940;2023-05-07T20:12:41;7.00;;;6.30;;
13455;SDS011;6800;50.940;6.940;2023-05-07T20:16:42;9.10;;;7.25;;
13455;SDS011;6800;50.940;6.940;2023-05-07T20:20:44;7.93;;;7.18;;
13455;SDS011;6800;50.940;6.940;2023-05-07T20:24:45;8.77;;;7.88;;
13455;SDS011;6800;50.940;6.940;2023-05-07T20:28:47;10.40;;;8.63;;
13455;SDS011;6800;50.940;6.940;2023-05-07T20:32:49;10.00;;;9.00;;
13455;SDS011;6800;50.940;6.940;2023-05-07T20:36:50;9.93;;;8.52;;
13455;SDS011;6800;50.940;6.940;2023-05-07T20:40:52;9.93;;;8.93;;
13455;SDS011;6800;50.940;6.940;2023-05-07T20:44:54;9.60;;;8.80;;
13455;SDS011;6800;50.940;6.940;2023-05-07T20:48:56;10.17;;;9.17;;
13455;SDS011;6800;50.940;6.940;2023-05-07T20:52:57;9.23;;;8.33;;
13455;SDS011;6800;50.940;6.940;2023-05-07T20:56:59;9.20;;;8.40;;
13455;SDS011;6800;50.940;6.940;2023-05-07T21:01:02;8.33;;;7.63;;
13455;SDS011;6800;50.940;6.940;2023-05-07T21:05:05;9.10;;;8.30;;
13455;SDS011;6800;50.940;6.940;2023-05-07T21:09:06;8.60;;;7.87;;
13455;SDS011;6800;50.940;6.940;2023-05-07T21:13:08;9.23;;;8.30;;
13455;SDS011;6800;50.940;6.940;2023-05-07T21:17:09;9.47;;;8.57;;
13455;SDS011;6800;50.940;6.940;2023-05-07T21:21:10;8.80;;;8.10;;
13455;SDS011;6800;50.940;6.940;2023-05-07T21:25:12;8.33;;;7.53;;
13455;SDS011;6800;50.940;6.940;2023-05-07T21:29:13;7.67;;;7.07;;
13455;SDS011;6800;50.940;6.940;2023-05-07T21:33:15;6.17;;;4.80;;
13455;SDS011;6800;50.940;6.940;2023-05-07T21:37:16;5.47;;;4.70;;
13455;SDS011;6800;50.940;6.940;2023-05-07T21:41:18;5.33;;;4.87;;
13455;SDS011;6800;50.940;6.940;2023-05-07T21:45:20;5.85;;;5.20;;
13455;SDS011;6800;50.940;6.940;2023-05-07T21:49:21;5.00;;;4.60;;
13455;SDS011;6800;50.940;6.940;2023-05-07T21:53:23;5.00;;;4.60;;
13455;SDS011;6800;50.940;6.940;2023-05-07T21:57:24;5.70;;;5.20;;
13455;SDS011;6800;50.940;6.940;2023-05-07T22:01:26;7.33;;;5.67;;
13455;SDS011;6800;50.940;6.940;2023-05-07T22:05:27;5.90;;;5.37;;
13455;SDS011;6800;50.940;6.940;2023-05-07T22:09:28;6.70;;;6.10;;
13455;SDS011;6800;50.940;6.940;2023-05-07T22:13:30;6.77;;;6.13;;
13455;SDS011;6800;50.940;6.940;2023-05-07T22:17:31;6.20;;;5.70;;
13455;SDS011;6800;50.940;6.940;2023-05-07T22:21:33;6.27;;;5.77;;
13455;SDS011;6800;50.940;6.940;2023-05-07T22:25:34;6.53;;;5.93;;
13455;SDS011;6800;50.940;6.940;2023-05-07T22:29:36;8.10;;;7.40;;
13455;SDS011;6800;50.940;6.940;2023-05-07T22:33:37;9.00;;;8.20;;
13455;SDS011;6800;50.940;6.940;2023-05-07T22:37:39;9.43;;;8.53;;
13455;SDS011;6800;50.940;6.940;2023-05-07T22:41:40;11.53;;;10.37;;
13455;SDS011;6800;50.940;6.940;2023-05-07T22:45:42;11.03;;;10.03;;
13455;SDS011;6800;50.940;6.940;2023-05-07T22:49:43;11.67;;;10.67;;
13455;SDS011;6800;50.940;6.940;2023-05-07T22:53:45;10.83;;;9.93;;
13455;SDS011;6800;50.940;6.940;2023-05-07T22:57:46;9.63;;;8.83;;
13455;SDS011;6800;50.940;6.940;2023-05-07T23:01:48;8.87;;;7.97;;
13455;SDS011;6800;50.940;6.940;2023-05-07T23:05:49;7.40;;;6.67;;
13455;SDS011;6800;50.940;6.940;2023-05-07T23:09:52;8.07;;;7.37;;
13455;SDS011;6800;50.940;6.940;2023-05-07T23:13:54;7.50;;;6.90;;
13455;SDS011;6800;50.940;6.940;2023-05-07T23:17:55;8.60;;;7.80;;
13455;SDS011;6800;50.940;6.940;2023-05-07T23:21:57;8.50;;;7.70;;
13455;SDS011;6800;50.940;6.940;2023-05-07T23:25:58;8.30;;;7.50;;
13455;SDS011;6800;50.940;6.940;2023-05-07T23:29:59;8.93;;;8.13;;
13455;SDS011;6800;50.940;6.940;2023-05-07T23:34:01;8.13;;;7.33;;
13455;SDS011;6800;50.940;6.940;2023-05-07T23:38:02;10.50;;;9.60;;
13455;SDS011;6800;50.940;6.940;2023-05-07T23:42:03;11.90;;;11.00;;
13455;SDS011;6800;50.940;6.940;2023-05-07T23:46:05;11.90;;;10.80;;
13455;SDS011;6800;50.940;6.940;2023-05-07T23:50:07;11.33;;;10.43;;
13455;SDS011;6800;50.940;6.940;2023-05-07T23:54:08;10.87;;;9.87;;
13455;SDS011;6800;50.940;6.940;2023-05-07T23:58:10;11.40;;;10.30;;
